Terminal Aerodrome Forecast
Issued by NWS

Home | Current Version | Previous Version | Text Only | Print | Product List | Glossary On
Versions: 1 2 3 4 5 6 7 8 9 10 11 12 13 14 15 16
000
FTUS43 KDDC 242213 AAA
TAFGCK
TAF AMD
KGCK 242213Z 2422/2518 VRB06KT P6SM BKN200
     FM242300 02015G23KT P6SM BKN200
     FM250300 04008KT P6SM BKN250
     FM250600 02005KT P6SM OVC040
     FM251400 02009KT P6SM OVC015
     FM251700 03010KT P6SM BKN020=

USA.gov is the U.S. government's official web portal to all federal, state and local government web resources and services.